Time;durP1;ratioP1;P1;durP2;ratioP2;P2;SDS_P1;SDS_P2;PMS_P1;PMS_P2;Temp;Humidity;BMP_temperature;BMP_pressure;BME280_temperature;BME280_humidity;BME280_pressure;Samples;Min_cycle;Max_cycle;Signal;HPM_P1;HPM_P2
2021/10/04 00:00:00;;;;;;;;;;;21.60;58.30;;;;;;500514;238;1051;-47
2021/10/04 00:02:01;;;;;;;;;;;21.60;58.20;;;;;;500244;238;1541;-47
2021/10/04 00:04:02;;;;;;;;;;;21.60;58.40;;;;;;500009;238;1046;-47
2021/10/04 00:06:04;;;;;;;;;;;21.60;58.40;;;;;;500250;238;1103;-47
2021/10/04 00:08:05;;;;;;;;;;;21.60;58.40;;;;;;500055;238;2124;-47
2021/10/04 00:10:06;;;;;;;;;;;21.60;58.30;;;;;;500488;238;1069;-47
2021/10/04 00:12:08;;;;;;;;;;;21.60;58.30;;;;;;500011;238;1175;-47
2021/10/04 00:14:09;;;;;;;;;;;21.60;58.40;;;;;;500074;238;1000;-46
2021/10/04 00:16:10;;;;;;;;;;;21.50;58.40;;;;;;499989;238;1483;-47
2021/10/04 00:18:12;;;;;;;;;;;21.60;58.40;;;;;;500551;238;1044;-46
2021/10/04 00:20:13;;;;;;;;;;;21.60;58.50;;;;;;500260;238;1235;-47
2021/10/04 00:22:14;;;;;;;;;;;21.60;58.50;;;;;;500107;238;1195;-46
2021/10/04 00:24:16;;;;;;;;;;;21.60;58.50;;;;;;500033;238;1028;-47
2021/10/04 00:26:17;;;;;;;;;;;21.50;58.50;;;;;;500313;238;1443;-47
2021/10/04 00:28:18;;;;;;;;;;;21.50;58.50;;;;;;500120;238;2187;-47
2021/10/04 00:30:20;;;;;;;;;;;21.50;58.40;;;;;;500106;238;1226;-46
2021/10/04 00:32:21;;;;;;;;;;;21.60;58.40;;;;;;499992;238;1234;-47
2021/10/04 00:34:22;;;;;;;;;;;21.60;58.40;;;;;;500004;238;1067;-46
2021/10/04 00:36:24;;;;;;;;;;;21.60;58.50;;;;;;499967;238;1348;-47
2021/10/04 00:38:25;;;;;;;;;;;21.50;58.50;;;;;;500450;238;1031;-47
2021/10/04 00:40:26;;;;;;;;;;;21.60;58.50;;;;;;500437;238;1076;-46
2021/10/04 00:42:28;;;;;;;;;;;21.50;58.50;;;;;;500406;238;1059;-46
2021/10/04 00:44:29;;;;;;;;;;;21.50;58.40;;;;;;500458;238;1340;-47
2021/10/04 00:46:30;;;;;;;;;;;21.60;58.50;;;;;;500285;238;1439;-46
2021/10/04 00:48:31;;;;;;;;;;;21.60;58.40;;;;;;500218;238;2187;-47
2021/10/04 00:50:33;;;;;;;;;;;21.60;58.40;;;;;;499984;238;1094;-46
2021/10/04 00:52:34;;;;;;;;;;;21.60;58.40;;;;;;500402;238;1207;-47
2021/10/04 00:54:35;;;;;;;;;;;21.50;58.50;;;;;;499988;238;1116;-46
2021/10/04 00:56:37;;;;;;;;;;;21.50;58.50;;;;;;500081;238;1112;-46
2021/10/04 00:58:38;;;;;;;;;;;21.50;58.50;;;;;;500529;238;1237;-46
2021/10/04 01:00:39;;;;;;;;;;;21.60;58.50;;;;;;500536;238;1165;-47
2021/10/04 01:02:41;;;;;;;;;;;21.60;58.50;;;;;;500226;238;1217;-47
2021/10/04 01:04:44;;;;;;;;;;;21.60;58.40;;;;;;500008;238;1069;-47
2021/10/04 01:06:43;;;;;;;;;;;21.60;58.40;;;;;;499942;238;2292;-46
2021/10/04 01:08:45;;;;;;;;;;;21.60;58.40;;;;;;500521;238;2184;-47
2021/10/04 01:10:46;;;;;;;;;;;21.60;58.40;;;;;;500004;238;1117;-47
2021/10/04 01:12:47;;;;;;;;;;;21.50;58.40;;;;;;500150;238;1216;-47
2021/10/04 01:14:49;;;;;;;;;;;21.60;58.40;;;;;;500019;238;1048;-47
2021/10/04 01:16:50;;;;;;;;;;;21.50;58.40;;;;;;499969;238;1393;-47
2021/10/04 01:18:51;;;;;;;;;;;21.60;58.50;;;;;;500428;238;1037;-46
2021/10/04 01:20:53;;;;;;;;;;;21.60;58.50;;;;;;500243;238;1173;-46
2021/10/04 01:22:54;;;;;;;;;;;21.60;58.50;;;;;;500509;238;1016;-47
2021/10/04 01:24:55;;;;;;;;;;;21.60;58.40;;;;;;500066;238;1058;-46
2021/10/04 01:26:57;;;;;;;;;;;21.60;58.40;;;;;;499966;238;1159;-46
2021/10/04 01:28:58;;;;;;;;;;;21.60;58.40;;;;;;500170;238;2188;-47
2021/10/04 01:30:59;;;;;;;;;;;21.60;58.30;;;;;;500063;238;1277;-47
2021/10/04 01:33:01;;;;;;;;;;;21.60;58.30;;;;;;500528;238;1058;-47
2021/10/04 01:35:02;;;;;;;;;;;21.60;58.30;;;;;;500088;238;1160;-46
2021/10/04 01:37:03;;;;;;;;;;;21.60;58.30;;;;;;500038;238;1226;-46
2021/10/04 01:39:05;;;;;;;;;;;21.60;58.30;;;;;;500515;238;1200;-47
2021/10/04 01:41:06;;;;;;;;;;;21.60;58.40;;;;;;500358;238;1456;-47
2021/10/04 01:43:07;;;;;;;;;;;21.60;58.30;;;;;;500435;238;1601;-46
2021/10/04 01:45:09;;;;;;;;;;;21.60;58.40;;;;;;500005;238;1031;-47
2021/10/04 01:47:10;;;;;;;;;;;21.60;58.40;;;;;;500012;238;1136;-46
2021/10/04 01:49:11;;;;;;;;;;;21.60;58.40;;;;;;500050;238;2179;-46
2021/10/04 01:51:13;;;;;;;;;;;21.60;58.30;;;;;;499393;238;1408;-47
2021/10/04 01:53:14;;;;;;;;;;;21.60;58.40;;;;;;499032;238;1245;-47
2021/10/04 01:55:15;;;;;;;;;;;21.60;58.40;;;;;;499250;238;1065;-46
2021/10/04 01:57:16;;;;;;;;;;;21.60;58.40;;;;;;499089;238;1214;-46
2021/10/04 01:59:18;;;;;;;;;;;21.60;58.40;;;;;;498999;238;1179;-47
2021/10/04 02:01:19;;;;;;;;;;;21.50;58.40;;;;;;499166;238;1150;-45
2021/10/04 02:03:20;;;;;;;;;;;21.60;58.50;;;;;;499109;238;1200;-46
2021/10/04 02:05:22;;;;;;;;;;;21.60;58.40;;;;;;519410;229;1063;-45
2021/10/04 02:07:23;;;;;;;;;;;21.60;58.50;;;;;;518931;229;1209;-46
2021/10/04 02:09:24;;;;;;;;;;;21.60;58.50;;;;;;519071;229;2168;-46
2021/10/04 02:11:26;;;;;;;;;;;21.50;58.50;;;;;;519046;229;1222;-46
2021/10/04 02:13:27;;;;;;;;;;;21.60;58.40;;;;;;519107;229;1039;-46
2021/10/04 02:15:29;;;;;;;;;;;21.60;58.50;;;;;;518931;230;1072;-46
2021/10/04 02:17:31;;;;;;;;;;;21.60;58.50;;;;;;518892;230;1204;-46
2021/10/04 02:19:32;;;;;;;;;;;21.60;58.30;;;;;;519011;230;1053;-46
2021/10/04 02:21:33;;;;;;;;;;;21.60;58.30;;;;;;519027;229;1210;-46
2021/10/04 02:23:34;;;;;;;;;;;21.60;58.30;;;;;;519119;229;1039;-46
2021/10/04 02:25:36;;;;;;;;;;;21.60;58.40;;;;;;518962;229;1139;-46
2021/10/04 02:27:37;;;;;;;;;;;21.60;58.40;;;;;;518885;229;1470;-46
2021/10/04 02:29:38;;;;;;;;;;;21.60;58.50;;;;;;519175;229;2191;-46
2021/10/04 02:31:40;;;;;;;;;;;21.60;58.40;;;;;;518862;230;1179;-46
2021/10/04 02:33:41;;;;;;;;;;;21.60;58.40;;;;;;519455;229;1040;-46
2021/10/04 02:35:42;;;;;;;;;;;21.50;58.50;;;;;;518956;230;1169;-46
2021/10/04 02:37:43;;;;;;;;;;;21.50;58.50;;;;;;518962;229;1308;-46
2021/10/04 02:39:45;;;;;;;;;;;21.50;58.50;;;;;;519252;229;1042;-46
2021/10/04 02:41:46;;;;;;;;;;;21.60;58.40;;;;;;519111;229;1377;-45
2021/10/04 02:43:47;;;;;;;;;;;21.60;58.40;;;;;;519536;229;1026;-46
2021/10/04 02:45:49;;;;;;;;;;;21.60;58.40;;;;;;519027;229;1254;-46
2021/10/04 02:47:50;;;;;;;;;;;21.60;58.40;;;;;;519043;229;2196;-46
2021/10/04 02:49:51;;;;;;;;;;;21.60;58.40;;;;;;519532;229;1088;-46
2021/10/04 02:51:53;;;;;;;;;;;21.60;58.50;;;;;;518914;229;1472;-46
2021/10/04 02:53:54;;;;;;;;;;;21.50;58.40;;;;;;519121;229;1239;-46
2021/10/04 02:55:55;;;;;;;;;;;21.60;58.50;;;;;;519156;229;1305;-46
2021/10/04 02:57:57;;;;;;;;;;;21.60;58.50;;;;;;518908;230;1177;-45
2021/10/04 02:59:58;;;;;;;;;;;21.60;58.50;;;;;;519186;229;1035;-45
2021/10/04 03:02:00;;;;;;;;;;;21.60;58.40;;;;;;518944;229;1330;-47
2021/10/04 03:04:01;;;;;;;;;;;21.60;58.40;;;;;;519174;229;1227;-47
2021/10/04 03:06:02;;;;;;;;;;;21.60;58.50;;;;;;518982;229;1447;-47
2021/10/04 03:08:05;;;;;;;;;;;21.60;58.40;;;;;;518691;230;2143;-47
2021/10/04 03:10:05;;;;;;;;;;;21.60;58.40;;;;;;519429;229;2404;-47
2021/10/04 03:12:06;;;;;;;;;;;21.60;58.50;;;;;;518984;229;1109;-47
2021/10/04 03:14:08;;;;;;;;;;;21.50;58.40;;;;;;519049;230;1030;-47
2021/10/04 03:16:09;;;;;;;;;;;21.60;58.40;;;;;;519405;229;1234;-47
2021/10/04 03:18:11;;;;;;;;;;;21.60;58.40;;;;;;519001;229;1214;-47
2021/10/04 03:20:12;;;;;;;;;;;21.60;58.50;;;;;;519369;229;1372;-46
2021/10/04 03:22:13;;;;;;;;;;;21.60;58.40;;;;;;518914;229;1210;-47
2021/10/04 03:24:15;;;;;;;;;;;21.60;58.50;;;;;;519328;229;1023;-46
2021/10/04 03:26:15;;;;;;;;;;;21.60;58.50;;;;;;519162;229;1982;-47
2021/10/04 03:28:17;;;;;;;;;;;21.50;58.50;;;;;;519363;229;2167;-46
2021/10/04 03:30:18;;;;;;;;;;;21.60;58.50;;;;;;519336;229;1429;-47
2021/10/04 03:32:19;;;;;;;;;;;21.60;58.50;;;;;;519467;229;1200;-47
2021/10/04 03:34:21;;;;;;;;;;;21.50;58.50;;;;;;518990;230;1043;-47
2021/10/04 03:36:22;;;;;;;;;;;21.50;58.50;;;;;;518869;230;1335;-47
2021/10/04 03:38:23;;;;;;;;;;;21.60;58.40;;;;;;519084;229;1554;-47
2021/10/04 03:40:25;;;;;;;;;;;21.60;58.40;;;;;;519269;229;1045;-47
2021/10/04 03:42:26;;;;;;;;;;;21.60;58.40;;;;;;519237;229;1231;-47
2021/10/04 03:44:27;;;;;;;;;;;21.60;58.40;;;;;;519395;229;1040;-47
2021/10/04 03:46:29;;;;;;;;;;;21.60;58.40;;;;;;518971;229;1315;-47
2021/10/04 03:48:30;;;;;;;;;;;21.50;58.50;;;;;;519465;229;2167;-47
2021/10/04 03:50:31;;;;;;;;;;;21.50;58.50;;;;;;519091;229;1102;-47
2021/10/04 03:52:33;;;;;;;;;;;21.50;58.50;;;;;;519113;229;1217;-46
2021/10/04 03:54:34;;;;;;;;;;;21.60;58.50;;;;;;519131;229;1107;-46
2021/10/04 03:56:35;;;;;;;;;;;21.60;58.50;;;;;;518920;230;1171;-47
2021/10/04 03:58:37;;;;;;;;;;;21.60;58.40;;;;;;518958;229;1138;-47
2021/10/04 04:00:39;;;;;;;;;;;21.60;58.40;;;;;;519153;229;1029;-46
2021/10/04 04:02:39;;;;;;;;;;;21.60;58.30;;;;;;518932;229;1532;-47
2021/10/04 04:04:41;;;;;;;;;;;21.60;58.30;;;;;;519132;229;1043;-47
2021/10/04 04:06:42;;;;;;;;;;;21.60;58.30;;;;;;518775;230;1142;-47
2021/10/04 04:08:43;;;;;;;;;;;21.60;58.20;;;;;;519098;229;2187;-46
2021/10/04 04:10:44;;;;;;;;;;;21.60;58.20;;;;;;519462;229;1138;-46
2021/10/04 04:12:46;;;;;;;;;;;21.60;58.30;;;;;;518872;230;1153;-46
2021/10/04 04:14:47;;;;;;;;;;;21.60;58.30;;;;;;519052;229;1027;-46
2021/10/04 04:16:49;;;;;;;;;;;21.70;58.30;;;;;;518828;230;1268;-46
2021/10/04 04:18:50;;;;;;;;;;;21.60;58.30;;;;;;519109;229;1219;-45
2021/10/04 04:20:51;;;;;;;;;;;21.60;58.20;;;;;;519233;229;1166;-46
2021/10/04 04:22:53;;;;;;;;;;;21.60;58.30;;;;;;518909;230;1441;-46
2021/10/04 04:24:55;;;;;;;;;;;21.60;58.40;;;;;;519479;229;1020;-46
2021/10/04 04:26:56;;;;;;;;;;;21.60;58.40;;;;;;518722;230;1964;-46
2021/10/04 04:28:57;;;;;;;;;;;21.60;58.40;;;;;;519405;229;2099;-46
2021/10/04 04:30:58;;;;;;;;;;;21.50;58.50;;;;;;518879;229;1429;-46
2021/10/04 04:32:59;;;;;;;;;;;21.60;58.50;;;;;;518927;229;1221;-46
2021/10/04 04:35:05;;;;;;;;;;;21.60;58.50;;;;;;518868;229;1163;-45
2021/10/04 04:37:03;;;;;;;;;;;21.60;58.50;;;;;;518531;230;1901;-46
2021/10/04 04:39:04;;;;;;;;;;;21.60;58.40;;;;;;518880;229;1189;-46
2021/10/04 04:41:06;;;;;;;;;;;21.60;58.50;;;;;;518727;229;1133;-46
2021/10/04 04:43:07;;;;;;;;;;;21.60;58.40;;;;;;518779;229;1264;-45
2021/10/04 04:45:09;;;;;;;;;;;21.60;58.50;;;;;;518837;229;1035;-46
2021/10/04 04:47:10;;;;;;;;;;;21.50;58.50;;;;;;518686;230;1227;-46
2021/10/04 04:49:11;;;;;;;;;;;21.50;58.60;;;;;;518769;230;2159;-45
2021/10/04 04:51:12;;;;;;;;;;;21.50;58.50;;;;;;518754;229;1515;-46
2021/10/04 04:53:14;;;;;;;;;;;21.50;58.50;;;;;;518771;229;1156;-46
2021/10/04 04:55:15;;;;;;;;;;;21.50;58.50;;;;;;518761;229;1044;-46
2021/10/04 04:57:16;;;;;;;;;;;21.60;58.50;;;;;;518681;230;1199;-46
2021/10/04 04:59:18;;;;;;;;;;;21.60;58.50;;;;;;518853;229;1038;-46
2021/10/04 05:01:19;;;;;;;;;;;21.60;58.40;;;;;;518686;230;1449;-45
2021/10/04 05:03:20;;;;;;;;;;;21.60;58.30;;;;;;518910;229;1102;-46
2021/10/04 05:05:22;;;;;;;;;;;21.60;58.20;;;;;;518607;229;1062;-46
2021/10/04 05:07:23;;;;;;;;;;;21.60;58.40;;;;;;518625;229;1192;-46
2021/10/04 05:09:24;;;;;;;;;;;21.60;58.50;;;;;;518855;229;2179;-46
2021/10/04 05:11:25;;;;;;;;;;;21.60;58.40;;;;;;518549;229;1144;-45
2021/10/04 05:13:27;;;;;;;;;;;21.60;58.40;;;;;;518667;230;1036;-45
2021/10/04 05:15:30;;;;;;;;;;;21.60;58.40;;;;;;518717;229;1436;-46
2021/10/04 05:17:30;;;;;;;;;;;21.60;58.30;;;;;;518602;229;1355;-46
2021/10/04 05:19:31;;;;;;;;;;;21.60;58.40;;;;;;518743;229;1076;-46
2021/10/04 05:21:33;;;;;;;;;;;21.60;58.40;;;;;;518535;230;1231;-47
2021/10/04 05:23:34;;;;;;;;;;;21.60;58.20;;;;;;518513;230;1125;-46
2021/10/04 05:25:35;;;;;;;;;;;21.60;58.30;;;;;;518589;229;1449;-46
2021/10/04 05:27:38;;;;;;;;;;;21.60;58.30;;;;;;518809;229;1108;-45
2021/10/04 05:29:39;;;;;;;;;;;21.60;58.30;;;;;;518767;229;2101;-46
2021/10/04 05:31:41;;;;;;;;;;;21.60;58.40;;;;;;518687;229;1201;-46
2021/10/04 05:33:42;;;;;;;;;;;21.60;58.40;;;;;;518624;229;1054;-46
2021/10/04 05:35:43;;;;;;;;;;;21.60;58.40;;;;;;518478;229;1195;-46
2021/10/04 05:37:45;;;;;;;;;;;21.60;58.30;;;;;;518490;229;1294;-46
2021/10/04 05:39:46;;;;;;;;;;;21.60;58.40;;;;;;518574;230;1205;-46
2021/10/04 05:41:47;;;;;;;;;;;21.60;58.40;;;;;;518474;229;1154;-46
2021/10/04 05:43:49;;;;;;;;;;;21.60;58.40;;;;;;518850;229;1034;-46
2021/10/04 05:45:50;;;;;;;;;;;21.60;58.30;;;;;;518132;229;1351;-46
2021/10/04 05:47:51;;;;;;;;;;;21.60;58.30;;;;;;518524;230;1135;-47
2021/10/04 05:49:53;;;;;;;;;;;21.60;58.40;;;;;;518686;229;2171;-46
2021/10/04 05:51:54;;;;;;;;;;;21.60;58.40;;;;;;518595;230;1474;-47
2021/10/04 05:53:55;;;;;;;;;;;21.60;58.40;;;;;;518683;229;1169;-47
2021/10/04 05:55:57;;;;;;;;;;;21.50;58.40;;;;;;518483;230;1738;-47
2021/10/04 05:57:58;;;;;;;;;;;21.60;58.50;;;;;;518640;229;1196;-47
2021/10/04 05:59:59;;;;;;;;;;;21.60;58.30;;;;;;518594;230;1045;-46
2021/10/04 06:02:01;;;;;;;;;;;21.60;58.30;;;;;;518425;230;1049;-45
2021/10/04 06:04:02;;;;;;;;;;;21.60;58.30;;;;;;518659;229;1148;-46
2021/10/04 06:06:03;;;;;;;;;;;21.60;58.30;;;;;;518602;229;1451;-45
2021/10/04 06:08:05;;;;;;;;;;;21.60;58.40;;;;;;518596;229;1086;-46
2021/10/04 06:10:06;;;;;;;;;;;21.60;58.40;;;;;;518733;229;2163;-46
2021/10/04 06:12:07;;;;;;;;;;;21.60;58.40;;;;;;518498;230;1179;-46
2021/10/04 06:14:09;;;;;;;;;;;21.60;58.40;;;;;;518619;229;1047;-46
2021/10/04 06:16:10;;;;;;;;;;;21.60;58.40;;;;;;518449;229;1199;-45
2021/10/04 06:18:12;;;;;;;;;;;21.60;58.30;;;;;;518505;229;1093;-46
2021/10/04 06:20:13;;;;;;;;;;;21.60;58.40;;;;;;518652;229;1099;-46
2021/10/04 06:22:14;;;;;;;;;;;21.50;58.40;;;;;;518492;229;1304;-46
2021/10/04 06:24:15;;;;;;;;;;;21.60;58.40;;;;;;518596;229;1111;-45
2021/10/04 06:26:16;;;;;;;;;;;21.60;58.20;;;;;;518299;230;1325;-46
2021/10/04 06:28:18;;;;;;;;;;;21.60;58.40;;;;;;518389;229;1169;-45
2021/10/04 06:30:19;;;;;;;;;;;21.60;58.40;;;;;;518292;229;2100;-46
2021/10/04 06:32:21;;;;;;;;;;;21.60;58.50;;;;;;518189;230;1281;-46
2021/10/04 06:34:22;;;;;;;;;;;21.60;58.40;;;;;;518309;229;1127;-46
2021/10/04 06:36:23;;;;;;;;;;;21.60;58.40;;;;;;517885;230;1358;-46
2021/10/04 06:38:25;;;;;;;;;;;21.60;58.30;;;;;;518252;229;1276;-46
2021/10/04 06:40:26;;;;;;;;;;;21.60;58.30;;;;;;518464;229;1166;-46
2021/10/04 06:42:27;;;;;;;;;;;21.60;58.20;;;;;;518570;229;1075;-45
2021/10/04 06:44:29;;;;;;;;;;;21.60;58.30;;;;;;518228;229;1110;-46
2021/10/04 06:46:30;;;;;;;;;;;21.60;58.30;;;;;;518165;229;1262;-47
2021/10/04 06:48:31;;;;;;;;;;;21.60;58.30;;;;;;518063;229;1198;-46
2021/10/04 06:50:33;;;;;;;;;;;21.60;58.40;;;;;;517921;229;2194;-46
2021/10/04 06:52:34;;;;;;;;;;;21.60;58.40;;;;;;518001;229;1132;-46
2021/10/04 06:54:35;;;;;;;;;;;21.60;58.40;;;;;;518139;229;1169;-46
2021/10/04 06:56:37;;;;;;;;;;;21.60;58.40;;;;;;517964;229;1472;-46
2021/10/04 06:58:38;;;;;;;;;;;21.60;58.40;;;;;;517605;229;1071;-46
2021/10/04 07:00:39;;;;;;;;;;;21.60;58.30;;;;;;518099;229;1190;-45
2021/10/04 07:02:41;;;;;;;;;;;21.70;58.30;;;;;;518029;229;1512;-46
2021/10/04 07:04:42;;;;;;;;;;;21.60;58.30;;;;;;518111;229;1325;-46
2021/10/04 07:06:43;;;;;;;;;;;21.60;58.20;;;;;;518119;229;1548;-46
2021/10/04 07:08:45;;;;;;;;;;;21.60;58.30;;;;;;518290;229;1098;-47
2021/10/04 07:10:46;;;;;;;;;;;21.60;58.20;;;;;;518132;229;2186;-46
2021/10/04 07:12:48;;;;;;;;;;;21.60;58.50;;;;;;518131;229;1156;-46
2021/10/04 07:14:49;;;;;;;;;;;21.60;58.40;;;;;;517990;230;1134;-46
2021/10/04 07:16:50;;;;;;;;;;;21.60;58.40;;;;;;517951;230;1331;-46
2021/10/04 07:18:52;;;;;;;;;;;21.60;58.40;;;;;;518114;229;1089;-46
2021/10/04 07:20:53;;;;;;;;;;;21.60;58.30;;;;;;518184;230;1360;-46
2021/10/04 07:22:54;;;;;;;;;;;21.60;58.20;;;;;;518147;229;1289;-46
2021/10/04 07:24:56;;;;;;;;;;;21.60;58.30;;;;;;517742;230;1114;-46
2021/10/04 07:26:59;;;;;;;;;;;21.60;58.40;;;;;;516988;229;1152;-46
2021/10/04 07:29:00;;;;;;;;;;;21.60;58.30;;;;;;517803;230;1992;-46
2021/10/04 07:31:01;;;;;;;;;;;21.60;58.30;;;;;;517780;229;2170;-46
2021/10/04 07:33:02;;;;;;;;;;;21.60;58.30;;;;;;517933;229;1103;-46
2021/10/04 07:35:03;;;;;;;;;;;21.60;58.30;;;;;;517910;229;1109;-46
2021/10/04 07:37:05;;;;;;;;;;;21.70;58.30;;;;;;517761;229;1330;-46
2021/10/04 07:39:06;;;;;;;;;;;21.60;58.30;;;;;;517779;230;1588;-45
2021/10/04 07:41:07;;;;;;;;;;;21.60;58.30;;;;;;517882;229;1303;-46
2021/10/04 07:43:09;;;;;;;;;;;21.60;58.30;;;;;;518481;229;1224;-46
2021/10/04 07:45:11;;;;;;;;;;;21.60;58.20;;;;;;517835;230;1108;-46
2021/10/04 07:47:13;;;;;;;;;;;21.70;58.20;;;;;;517831;229;1303;-46
2021/10/04 07:49:14;;;;;;;;;;;21.60;58.20;;;;;;517925;229;1188;-46
2021/10/04 07:51:17;;;;;;;;;;;21.60;58.20;;;;;;517749;229;2172;-46
2021/10/04 07:53:17;;;;;;;;;;;21.70;58.30;;;;;;517893;229;2117;-45
2021/10/04 07:55:19;;;;;;;;;;;21.60;58.30;;;;;;517898;230;1185;-46
2021/10/04 07:57:19;;;;;;;;;;;21.60;58.30;;;;;;517937;229;2186;-45
2021/10/04 07:59:21;;;;;;;;;;;21.70;58.20;;;;;;518008;229;1074;-46
2021/10/04 08:01:22;;;;;;;;;;;21.60;58.20;;;;;;517827;229;1452;-46
2021/10/04 08:03:23;;;;;;;;;;;21.60;58.20;;;;;;517903;229;1316;-46
2021/10/04 08:05:25;;;;;;;;;;;21.60;58.30;;;;;;517695;229;1343;-46
2021/10/04 08:07:26;;;;;;;;;;;21.70;58.30;;;;;;518081;230;1104;-46
2021/10/04 08:09:27;;;;;;;;;;;21.60;58.30;;;;;;518054;230;1100;-46
2021/10/04 08:11:29;;;;;;;;;;;21.60;58.40;;;;;;517953;230;2166;-46
2021/10/04 08:13:30;;;;;;;;;;;21.60;58.30;;;;;;517861;230;1169;-46
2021/10/04 08:15:31;;;;;;;;;;;21.60;58.40;;;;;;517461;229;1112;-46
2021/10/04 08:17:33;;;;;;;;;;;21.60;58.40;;;;;;517942;230;1071;-45
2021/10/04 08:19:34;;;;;;;;;;;21.60;58.30;;;;;;518035;229;1175;-46
2021/10/04 08:21:35;;;;;;;;;;;21.60;58.30;;;;;;518012;229;1202;-46
2021/10/04 08:23:37;;;;;;;;;;;21.60;58.30;;;;;;518423;230;899;-46
2021/10/04 08:25:38;;;;;;;;;;;21.60;58.30;;;;;;518765;229;1102;-45
2021/10/04 08:27:40;;;;;;;;;;;21.60;58.40;;;;;;517871;230;1168;-46
2021/10/04 08:29:41;;;;;;;;;;;21.70;58.40;;;;;;518036;229;1092;-45
2021/10/04 08:31:42;;;;;;;;;;;21.60;58.30;;;;;;518211;229;2163;-45
2021/10/04 08:33:44;;;;;;;;;;;21.60;58.30;;;;;;519049;229;846;-46
2021/10/04 08:35:45;;;;;;;;;;;21.60;58.30;;;;;;518675;229;1078;-45
2021/10/04 08:37:48;;;;;;;;;;;21.70;58.40;;;;;;518013;229;1207;-46
2021/10/04 08:39:48;;;;;;;;;;;21.60;58.30;;;;;;517580;230;1955;-45
2021/10/04 08:41:51;;;;;;;;;;;21.60;58.30;;;;;;517885;230;1232;-46
2021/10/04 08:43:51;;;;;;;;;;;21.70;58.30;;;;;;517915;230;2005;-46
2021/10/04 08:45:54;;;;;;;;;;;21.70;58.30;;;;;;517952;229;1091;-46
2021/10/04 08:47:58;;;;;;;;;;;21.60;58.30;;;;;;517702;230;1411;-46
2021/10/04 08:49:55;;;;;;;;;;;21.60;58.30;;;;;;517363;230;2259;-46
2021/10/04 08:51:56;;;;;;;;;;;21.60;58.30;;;;;;517708;229;1121;-47
2021/10/04 08:53:58;;;;;;;;;;;21.60;58.40;;;;;;518026;230;1275;-46
2021/10/04 08:55:59;;;;;;;;;;;21.60;58.30;;;;;;517957;230;1161;-46
2021/10/04 08:58:01;;;;;;;;;;;21.60;58.30;;;;;;518055;230;1164;-46
2021/10/04 09:00:02;;;;;;;;;;;21.60;58.30;;;;;;518065;229;1144;-46
2021/10/04 09:02:04;;;;;;;;;;;21.60;58.30;;;;;;518009;230;1327;-46
2021/10/04 09:04:05;;;;;;;;;;;21.60;58.30;;;;;;518093;229;1164;-46
2021/10/04 09:06:06;;;;;;;;;;;21.60;58.30;;;;;;517863;229;1212;-46
2021/10/04 09:08:10;;;;;;;;;;;21.70;58.30;;;;;;518081;229;1272;-46
2021/10/04 09:10:09;;;;;;;;;;;21.60;58.30;;;;;;517832;230;2163;-45
2021/10/04 09:12:10;;;;;;;;;;;21.60;58.40;;;;;;518112;229;1289;-45
2021/10/04 09:14:12;;;;;;;;;;;21.60;58.30;;;;;;518737;229;1142;-47
2021/10/04 09:16:13;;;;;;;;;;;21.70;58.30;;;;;;518515;229;1106;-46
2021/10/04 09:18:14;;;;;;;;;;;21.60;58.30;;;;;;518650;229;929;-46
2021/10/04 09:20:16;;;;;;;;;;;21.60;58.40;;;;;;518152;230;822;-46
2021/10/04 09:22:17;;;;;;;;;;;21.60;58.50;;;;;;518268;229;1262;-46
2021/10/04 09:24:18;;;;;;;;;;;21.60;58.40;;;;;;518627;229;780;-46
2021/10/04 09:26:19;;;;;;;;;;;21.60;58.30;;;;;;518504;229;1508;-46
2021/10/04 09:28:21;;;;;;;;;;;21.70;58.30;;;;;;518578;229;760;-45
2021/10/04 09:30:22;;;;;;;;;;;21.60;58.30;;;;;;518213;229;2175;-46
2021/10/04 09:32:23;;;;;;;;;;;21.60;58.40;;;;;;517933;229;1369;-45
2021/10/04 09:34:27;;;;;;;;;;;21.60;58.30;;;;;;518011;230;1095;-46
2021/10/04 09:36:26;;;;;;;;;;;21.60;58.30;;;;;;517805;230;2057;-45
2021/10/04 09:38:27;;;;;;;;;;;21.60;58.30;;;;;;517994;230;1427;-46
2021/10/04 09:40:29;;;;;;;;;;;21.60;58.40;;;;;;517990;229;1101;-46
2021/10/04 09:42:30;;;;;;;;;;;21.60;58.40;;;;;;517961;229;1532;-46
2021/10/04 09:44:31;;;;;;;;;;;21.60;58.40;;;;;;518027;229;1143;-45
2021/10/04 09:46:33;;;;;;;;;;;21.60;58.40;;;;;;517915;229;1501;-46
2021/10/04 09:48:34;;;;;;;;;;;21.60;58.40;;;;;;518092;229;2413;-46
2021/10/04 09:50:35;;;;;;;;;;;21.60;58.40;;;;;;518305;230;2164;-46
2021/10/04 09:52:37;;;;;;;;;;;21.70;58.40;;;;;;518445;230;1130;-46
2021/10/04 09:54:38;;;;;;;;;;;21.60;58.40;;;;;;517941;230;1092;-47
2021/10/04 09:56:39;;;;;;;;;;;21.60;58.40;;;;;;518010;230;1176;-45
2021/10/04 09:58:41;;;;;;;;;;;21.60;58.30;;;;;;518713;229;1113;-46
2021/10/04 10:00:42;;;;;;;;;;;21.60;58.50;;;;;;517942;230;1150;-46
2021/10/04 10:02:43;;;;;;;;;;;21.60;58.40;;;;;;518024;230;1239;-46
2021/10/04 10:04:46;;;;;;;;;;;21.60;58.40;;;;;;518033;229;1155;-46
2021/10/04 10:06:46;;;;;;;;;;;21.60;58.50;;;;;;518479;229;1801;-46
2021/10/04 10:08:48;;;;;;;;;;;21.60;58.40;;;;;;518947;229;1107;-46
2021/10/04 10:10:49;;;;;;;;;;;21.60;58.40;;;;;;518571;229;2172;-46
2021/10/04 10:12:50;;;;;;;;;;;21.60;58.40;;;;;;518078;229;1066;-46
2021/10/04 10:14:52;;;;;;;;;;;21.60;58.50;;;;;;518460;229;1120;-46
2021/10/04 10:16:53;;;;;;;;;;;21.60;58.40;;;;;;518086;229;1250;-46
2021/10/04 10:18:55;;;;;;;;;;;21.60;58.40;;;;;;518235;230;793;-46
2021/10/04 10:20:56;;;;;;;;;;;21.60;58.40;;;;;;518478;229;1409;-45
2021/10/04 10:22:57;;;;;;;;;;;21.60;58.40;;;;;;518163;229;1253;-46
2021/10/04 10:25:00;;;;;;;;;;;21.60;58.30;;;;;;518034;229;1088;-46
2021/10/04 10:27:00;;;;;;;;;;;21.60;58.40;;;;;;517760;230;2717;-46
2021/10/04 10:29:02;;;;;;;;;;;21.60;58.30;;;;;;518333;229;1099;-45
2021/10/04 10:31:03;;;;;;;;;;;21.60;58.40;;;;;;518015;229;2175;-46
2021/10/04 10:33:05;;;;;;;;;;;21.60;58.40;;;;;;518191;229;1265;-46
2021/10/04 10:35:06;;;;;;;;;;;21.60;58.40;;;;;;518177;229;1107;-46
2021/10/04 10:37:07;;;;;;;;;;;21.60;58.40;;;;;;517919;230;1221;-46
2021/10/04 10:39:08;;;;;;;;;;;21.60;58.40;;;;;;517863;230;1205;-45
2021/10/04 10:41:10;;;;;;;;;;;21.60;58.50;;;;;;517750;229;1176;-46
2021/10/04 10:43:12;;;;;;;;;;;21.50;58.50;;;;;;517796;229;1170;-46
2021/10/04 10:45:12;;;;;;;;;;;21.60;58.50;;;;;;517786;229;1331;-47
2021/10/04 10:47:14;;;;;;;;;;;21.60;58.50;;;;;;517638;229;1208;-47
2021/10/04 10:49:15;;;;;;;;;;;21.60;58.40;;;;;;517922;229;1107;-46
2021/10/04 10:51:17;;;;;;;;;;;21.70;58.40;;;;;;517857;229;2187;-46
2021/10/04 10:53:18;;;;;;;;;;;21.60;58.40;;;;;;518060;229;1099;-47
2021/10/04 10:55:19;;;;;;;;;;;21.60;58.20;;;;;;517811;229;1077;-47
2021/10/04 10:57:21;;;;;;;;;;;21.60;58.40;;;;;;517774;229;1263;-46
2021/10/04 10:59:22;;;;;;;;;;;21.60;58.40;;;;;;517827;230;1115;-47
2021/10/04 11:01:24;;;;;;;;;;;21.50;58.40;;;;;;517834;229;1245;-46
2021/10/04 11:03:25;;;;;;;;;;;21.60;58.40;;;;;;517849;229;1108;-47
2021/10/04 11:05:26;;;;;;;;;;;21.60;58.50;;;;;;517750;229;1093;-47
2021/10/04 11:07:28;;;;;;;;;;;21.60;58.50;;;;;;517751;229;1045;-47
2021/10/04 11:09:29;;;;;;;;;;;21.60;58.50;;;;;;517422;230;1317;-47
2021/10/04 11:11:31;;;;;;;;;;;21.60;58.40;;;;;;517465;229;2174;-47
2021/10/04 11:13:32;;;;;;;;;;;21.70;58.30;;;;;;517796;229;1205;-46
2021/10/04 11:15:33;;;;;;;;;;;21.70;58.30;;;;;;518027;229;1034;-46
2021/10/04 11:17:35;;;;;;;;;;;21.60;58.40;;;;;;517730;230;1122;-46
2021/10/04 11:19:36;;;;;;;;;;;21.60;58.40;;;;;;518026;229;1105;-46
2021/10/04 11:21:37;;;;;;;;;;;21.60;58.50;;;;;;518039;229;1298;-46
2021/10/04 11:23:39;;;;;;;;;;;21.60;58.50;;;;;;518134;229;1063;-46
2021/10/04 11:25:40;;;;;;;;;;;21.60;58.60;;;;;;517921;230;1091;-46
2021/10/04 11:27:41;;;;;;;;;;;21.60;58.50;;;;;;517972;229;1238;-46
2021/10/04 11:29:43;;;;;;;;;;;21.60;58.60;;;;;;517996;229;1064;-46
2021/10/04 11:31:45;;;;;;;;;;;21.60;58.60;;;;;;517824;229;2175;-46
2021/10/04 11:33:46;;;;;;;;;;;21.60;58.50;;;;;;517976;230;1073;-46
2021/10/04 11:35:48;;;;;;;;;;;21.60;58.50;;;;;;518031;229;1129;-45
2021/10/04 11:37:49;;;;;;;;;;;21.60;58.50;;;;;;518017;229;1233;-45
2021/10/04 11:39:50;;;;;;;;;;;21.60;58.50;;;;;;518141;230;1164;-46
2021/10/04 11:41:52;;;;;;;;;;;21.60;58.40;;;;;;518048;229;1316;-46
2021/10/04 11:43:53;;;;;;;;;;;21.60;58.40;;;;;;518100;229;1180;-46
2021/10/04 11:45:54;;;;;;;;;;;21.60;58.40;;;;;;517821;230;1311;-46
2021/10/04 11:47:56;;;;;;;;;;;21.60;58.40;;;;;;518340;230;1044;-46
2021/10/04 11:49:57;;;;;;;;;;;21.60;58.40;;;;;;517921;230;1239;-46
2021/10/04 11:51:59;;;;;;;;;;;21.60;58.40;;;;;;518110;229;2183;-46
2021/10/04 11:54:00;;;;;;;;;;;21.60;58.30;;;;;;518621;229;1065;-46
2021/10/04 11:56:01;;;;;;;;;;;21.60;58.40;;;;;;517933;229;1335;-46